sensor_id;sensor_type;location;lat;lon;timestamp;temperature;humidity
79049;DHT22;68680;50.764;6.120;2023-04-24T00:01:20;10.00;80.60
79049;DHT22;68680;50.764;6.120;2023-04-24T00:03:47;10.00;80.40
79049;DHT22;68680;50.764;6.120;2023-04-24T00:06:13;10.00;79.70
79049;DHT22;68680;50.764;6.120;2023-04-24T00:08:38;10.00;77.90
79049;DHT22;68680;50.764;6.120;2023-04-24T00:11:04;10.00;78.30
79049;DHT22;68680;50.764;6.120;2023-04-24T00:13:30;9.90;80.00
79049;DHT22;68680;50.764;6.120;2023-04-24T00:15:55;9.90;78.10
79049;DHT22;68680;50.764;6.120;2023-04-24T00:18:21;9.80;78.30
79049;DHT22;68680;50.764;6.120;2023-04-24T00:20:48;9.80;78.90
79049;DHT22;68680;50.764;6.120;2023-04-24T00:23:14;9.70;78.80
79049;DHT22;68680;50.764;6.120;2023-04-24T00:25:39;9.70;78.80
79049;DHT22;68680;50.764;6.120;2023-04-24T00:28:05;9.60;78.30
79049;DHT22;68680;50.764;6.120;2023-04-24T00:30:31;9.50;78.70
79049;DHT22;68680;50.764;6.120;2023-04-24T00:32:56;9.40;79.60
79049;DHT22;68680;50.764;6.120;2023-04-24T00:35:22;9.40;78.80
79049;DHT22;68680;50.764;6.120;2023-04-24T00:37:49;9.20;78.40
79049;DHT22;68680;50.764;6.120;2023-04-24T00:40:15;9.20;78.30
79049;DHT22;68680;50.764;6.120;2023-04-24T00:42:40;9.10;79.60
79049;DHT22;68680;50.764;6.120;2023-04-24T00:45:08;9.00;78.90
79049;DHT22;68680;50.764;6.120;2023-04-24T00:47:34;8.90;79.20
79049;DHT22;68680;50.764;6.120;2023-04-24T00:50:00;8.90;78.80
79049;DHT22;68680;50.764;6.120;2023-04-24T00:52:26;8.90;80.20
79049;DHT22;68680;50.764;6.120;2023-04-24T00:54:53;8.80;80.60
79049;DHT22;68680;50.764;6.120;2023-04-24T00:57:19;8.80;79.90
79049;DHT22;68680;50.764;6.120;2023-04-24T00:59:45;8.70;80.20
79049;DHT22;68680;50.764;6.120;2023-04-24T01:02:11;8.70;80.80
79049;DHT22;68680;50.764;6.120;2023-04-24T01:04:37;8.70;80.60
79049;DHT22;68680;50.764;6.120;2023-04-24T01:07:03;8.80;80.60
79049;DHT22;68680;50.764;6.120;2023-04-24T01:09:29;8.70;80.30
79049;DHT22;68680;50.764;6.120;2023-04-24T01:11:56;8.70;81.30
79049;DHT22;68680;50.764;6.120;2023-04-24T01:14:23;8.80;80.70
79049;DHT22;68680;50.764;6.120;2023-04-24T01:16:48;8.80;80.30
79049;DHT22;68680;50.764;6.120;2023-04-24T01:19:14;8.80;80.40
79049;DHT22;68680;50.764;6.120;2023-04-24T01:21:41;8.80;80.40
79049;DHT22;68680;50.764;6.120;2023-04-24T01:24:09;8.80;80.80
79049;DHT22;68680;50.764;6.120;2023-04-24T01:26:35;8.80;80.80
79049;DHT22;68680;50.764;6.120;2023-04-24T01:29:01;8.80;80.20
79049;DHT22;68680;50.764;6.120;2023-04-24T01:31:26;8.80;80.40
79049;DHT22;68680;50.764;6.120;2023-04-24T01:33:52;8.80;80.10
79049;DHT22;68680;50.764;6.120;2023-04-24T01:36:19;8.80;80.10
79049;DHT22;68680;50.764;6.120;2023-04-24T01:38:46;8.80;80.20
79049;DHT22;68680;50.764;6.120;2023-04-24T01:41:13;8.80;80.60
79049;DHT22;68680;50.764;6.120;2023-04-24T01:43:38;8.80;81.20
79049;DHT22;68680;50.764;6.120;2023-04-24T01:46:04;8.70;80.10
79049;DHT22;68680;50.764;6.120;2023-04-24T01:48:31;8.70;80.90
79049;DHT22;68680;50.764;6.120;2023-04-24T01:50:56;8.70;80.50
79049;DHT22;68680;50.764;6.120;2023-04-24T01:53:22;8.80;80.10
79049;DHT22;68680;50.764;6.120;2023-04-24T01:55:48;8.80;80.80
79049;DHT22;68680;50.764;6.120;2023-04-24T01:58:15;8.80;80.70
79049;DHT22;68680;50.764;6.120;2023-04-24T02:00:40;8.70;80.40
79049;DHT22;68680;50.764;6.120;2023-04-24T02:03:06;8.70;80.10
79049;DHT22;68680;50.764;6.120;2023-04-24T02:05:32;8.70;79.70
79049;DHT22;68680;50.764;6.120;2023-04-24T02:07:57;8.70;79.80
79049;DHT22;68680;50.764;6.120;2023-04-24T02:10:23;8.70;80.20
79049;DHT22;68680;50.764;6.120;2023-04-24T02:12:48;8.70;80.50
79049;DHT22;68680;50.764;6.120;2023-04-24T02:15:15;8.70;80.40
79049;DHT22;68680;50.764;6.120;2023-04-24T02:17:41;8.70;80.30
79049;DHT22;68680;50.764;6.120;2023-04-24T02:20:07;8.70;80.20
79049;DHT22;68680;50.764;6.120;2023-04-24T02:22:33;8.70;80.60
79049;DHT22;68680;50.764;6.120;2023-04-24T02:24:58;8.70;80.60
79049;DHT22;68680;50.764;6.120;2023-04-24T02:27:24;8.70;80.40
79049;DHT22;68680;50.764;6.120;2023-04-24T02:29:49;8.70;81.50
79049;DHT22;68680;50.764;6.120;2023-04-24T02:32:16;8.60;81.00
79049;DHT22;68680;50.764;6.120;2023-04-24T02:34:42;8.60;81.40
79049;DHT22;68680;50.764;6.120;2023-04-24T02:37:08;8.60;81.20
79049;DHT22;68680;50.764;6.120;2023-04-24T02:39:33;8.60;81.50
79049;DHT22;68680;50.764;6.120;2023-04-24T02:41:59;8.60;81.20
79049;DHT22;68680;50.764;6.120;2023-04-24T02:44:24;8.60;82.20
79049;DHT22;68680;50.764;6.120;2023-04-24T02:46:50;8.60;81.40
79049;DHT22;68680;50.764;6.120;2023-04-24T02:49:17;8.60;81.70
79049;DHT22;68680;50.764;6.120;2023-04-24T02:51:42;8.60;81.80
79049;DHT22;68680;50.764;6.120;2023-04-24T02:54:08;8.50;81.30
79049;DHT22;68680;50.764;6.120;2023-04-24T02:56:34;8.50;81.50
79049;DHT22;68680;50.764;6.120;2023-04-24T02:58:59;8.50;81.80
79049;DHT22;68680;50.764;6.120;2023-04-24T03:01:25;8.50;82.40
79049;DHT22;68680;50.764;6.120;2023-04-24T03:03:51;8.60;82.20
79049;DHT22;68680;50.764;6.120;2023-04-24T03:06:18;8.60;82.10
79049;DHT22;68680;50.764;6.120;2023-04-24T03:08:43;8.60;82.60
79049;DHT22;68680;50.764;6.120;2023-04-24T03:11:09;8.50;82.00
79049;DHT22;68680;50.764;6.120;2023-04-24T03:13:34;8.60;82.90
79049;DHT22;68680;50.764;6.120;2023-04-24T03:16:00;8.60;82.40
79049;DHT22;68680;50.764;6.120;2023-04-24T03:18:25;8.50;82.70
79049;DHT22;68680;50.764;6.120;2023-04-24T03:20:51;8.50;83.00
79049;DHT22;68680;50.764;6.120;2023-04-24T03:23:18;8.50;83.40
79049;DHT22;68680;50.764;6.120;2023-04-24T03:25:44;8.40;83.80
79049;DHT22;68680;50.764;6.120;2023-04-24T03:28:09;8.40;84.10
79049;DHT22;68680;50.764;6.120;2023-04-24T03:30:35;8.30;84.60
79049;DHT22;68680;50.764;6.120;2023-04-24T03:33:00;8.30;84.10
79049;DHT22;68680;50.764;6.120;2023-04-24T03:35:26;8.30;84.70
79049;DHT22;68680;50.764;6.120;2023-04-24T03:37:52;8.30;84.60
79049;DHT22;68680;50.764;6.120;2023-04-24T03:40:19;8.30;84.70
79049;DHT22;68680;50.764;6.120;2023-04-24T03:42:44;8.30;84.50
79049;DHT22;68680;50.764;6.120;2023-04-24T03:45:10;8.30;84.70
79049;DHT22;68680;50.764;6.120;2023-04-24T03:47:35;8.30;84.70
79049;DHT22;68680;50.764;6.120;2023-04-24T03:50:01;8.30;84.90
79049;DHT22;68680;50.764;6.120;2023-04-24T03:52:27;8.30;84.80
79049;DHT22;68680;50.764;6.120;2023-04-24T03:54:52;8.20;85.10
79049;DHT22;68680;50.764;6.120;2023-04-24T03:57:19;8.20;85.00
79049;DHT22;68680;50.764;6.120;2023-04-24T03:59:45;8.20;85.00
79049;DHT22;68680;50.764;6.120;2023-04-24T04:02:10;8.10;85.20
79049;DHT22;68680;50.764;6.120;2023-04-24T04:04:36;8.10;86.00
79049;DHT22;68680;50.764;6.120;2023-04-24T04:07:02;8.10;85.90
79049;DHT22;68680;50.764;6.120;2023-04-24T04:09:27;8.20;87.00
79049;DHT22;68680;50.764;6.120;2023-04-24T04:11:53;8.10;87.20
79049;DHT22;68680;50.764;6.120;2023-04-24T04:14:20;8.00;88.20
79049;DHT22;68680;50.764;6.120;2023-04-24T04:16:45;7.90;89.50
79049;DHT22;68680;50.764;6.120;2023-04-24T04:19:11;7.80;90.00
79049;DHT22;68680;50.764;6.120;2023-04-24T04:21:37;7.80;90.30
79049;DHT22;68680;50.764;6.120;2023-04-24T04:24:02;7.80;90.30
79049;DHT22;68680;50.764;6.120;2023-04-24T04:26:28;7.80;90.30
79049;DHT22;68680;50.764;6.120;2023-04-24T04:28:53;7.80;90.70
79049;DHT22;68680;50.764;6.120;2023-04-24T04:31:20;7.80;90.90
79049;DHT22;68680;50.764;6.120;2023-04-24T04:33:46;7.70;91.20
79049;DHT22;68680;50.764;6.120;2023-04-24T04:36:12;7.70;91.70
79049;DHT22;68680;50.764;6.120;2023-04-24T04:38:37;7.50;92.20
79049;DHT22;68680;50.764;6.120;2023-04-24T04:41:03;7.50;92.70
79049;DHT22;68680;50.764;6.120;2023-04-24T04:43:29;7.50;92.80
79049;DHT22;68680;50.764;6.120;2023-04-24T04:45:54;7.50;93.00
79049;DHT22;68680;50.764;6.120;2023-04-24T04:48:21;7.50;93.70
79049;DHT22;68680;50.764;6.120;2023-04-24T04:50:47;7.50;92.80
79049;DHT22;68680;50.764;6.120;2023-04-24T04:53:12;7.50;93.70
79049;DHT22;68680;50.764;6.120;2023-04-24T04:55:38;7.40;93.20
79049;DHT22;68680;50.764;6.120;2023-04-24T04:58:04;7.40;93.70
79049;DHT22;68680;50.764;6.120;2023-04-24T05:00:29;7.40;93.20
79049;DHT22;68680;50.764;6.120;2023-04-24T05:02:55;7.40;93.20
79049;DHT22;68680;50.764;6.120;2023-04-24T05:05:22;7.40;93.70
79049;DHT22;68680;50.764;6.120;2023-04-24T05:07:48;7.40;93.70
79049;DHT22;68680;50.764;6.120;2023-04-24T05:10:13;7.40;93.00
79049;DHT22;68680;50.764;6.120;2023-04-24T05:12:39;7.30;93.30
79049;DHT22;68680;50.764;6.120;2023-04-24T05:15:05;7.30;93.40
79049;DHT22;68680;50.764;6.120;2023-04-24T05:17:31;7.40;93.60
79049;DHT22;68680;50.764;6.120;2023-04-24T05:19:56;7.30;94.00
79049;DHT22;68680;50.764;6.120;2023-04-24T05:22:23;7.30;93.90
79049;DHT22;68680;50.764;6.120;2023-04-24T05:24:49;7.30;93.20
79049;DHT22;68680;50.764;6.120;2023-04-24T05:27:15;7.30;93.40
79049;DHT22;68680;50.764;6.120;2023-04-24T05:29:40;7.30;94.10
79049;DHT22;68680;50.764;6.120;2023-04-24T05:32:06;7.30;93.90
79049;DHT22;68680;50.764;6.120;2023-04-24T05:34:31;7.30;93.90
79049;DHT22;68680;50.764;6.120;2023-04-24T05:36:57;7.30;93.80
79049;DHT22;68680;50.764;6.120;2023-04-24T05:39:24;7.20;94.30
79049;DHT22;68680;50.764;6.120;2023-04-24T05:41:50;7.20;93.90
79049;DHT22;68680;50.764;6.120;2023-04-24T05:44:16;7.20;94.70
79049;DHT22;68680;50.764;6.120;2023-04-24T05:46:41;7.10;95.10
79049;DHT22;68680;50.764;6.120;2023-04-24T05:49:07;7.10;95.20
79049;DHT22;68680;50.764;6.120;2023-04-24T05:51:32;7.10;95.10
79049;DHT22;68680;50.764;6.120;2023-04-24T05:53:58;7.10;95.40
79049;DHT22;68680;50.764;6.120;2023-04-24T05:56:25;7.10;95.20
79049;DHT22;68680;50.764;6.120;2023-04-24T05:58:51;7.10;95.70
79049;DHT22;68680;50.764;6.120;2023-04-24T06:01:16;7.10;95.70
79049;DHT22;68680;50.764;6.120;2023-04-24T06:03:42;7.10;95.60
79049;DHT22;68680;50.764;6.120;2023-04-24T06:06:08;7.20;95.90
79049;DHT22;68680;50.764;6.120;2023-04-24T06:08:34;7.20;95.60
79049;DHT22;68680;50.764;6.120;2023-04-24T06:10:59;7.20;95.80
79049;DHT22;68680;50.764;6.120;2023-04-24T06:13:26;7.20;95.70
79049;DHT22;68680;50.764;6.120;2023-04-24T06:15:52;7.20;95.70
79049;DHT22;68680;50.764;6.120;2023-04-24T06:18:18;7.30;95.40
79049;DHT22;68680;50.764;6.120;2023-04-24T06:20:44;7.30;95.90
79049;DHT22;68680;50.764;6.120;2023-04-24T06:23:10;7.30;95.30
79049;DHT22;68680;50.764;6.120;2023-04-24T06:25:35;7.30;95.40
79049;DHT22;68680;50.764;6.120;2023-04-24T06:28:01;7.30;95.40
79049;DHT22;68680;50.764;6.120;2023-04-24T06:30:28;7.30;95.60
79049;DHT22;68680;50.764;6.120;2023-04-24T06:32:53;7.30;95.30
79049;DHT22;68680;50.764;6.120;2023-04-24T06:35:19;7.30;95.30
79049;DHT22;68680;50.764;6.120;2023-04-24T06:37:45;7.20;95.30
79049;DHT22;68680;50.764;6.120;2023-04-24T06:40:11;7.20;95.60
79049;DHT22;68680;50.764;6.120;2023-04-24T06:42:37;7.20;95.10
79049;DHT22;68680;50.764;6.120;2023-04-24T06:45:03;7.30;95.50
79049;DHT22;68680;50.764;6.120;2023-04-24T06:47:30;7.30;95.20
79049;DHT22;68680;50.764;6.120;2023-04-24T06:49:56;7.30;95.40
79049;DHT22;68680;50.764;6.120;2023-04-24T06:52:22;7.30;95.10
79049;DHT22;68680;50.764;6.120;2023-04-24T06:54:48;7.20;94.40
79049;DHT22;68680;50.764;6.120;2023-04-24T06:57:13;7.20;94.80
79049;DHT22;68680;50.764;6.120;2023-04-24T06:59:39;7.20;95.00
79049;DHT22;68680;50.764;6.120;2023-04-24T07:02:04;7.10;95.40
79049;DHT22;68680;50.764;6.120;2023-04-24T07:04:31;7.10;95.30
79049;DHT22;68680;50.764;6.120;2023-04-24T07:06:57;7.10;95.70
79049;DHT22;68680;50.764;6.120;2023-04-24T07:09:23;7.10;95.60
79049;DHT22;68680;50.764;6.120;2023-04-24T07:11:49;7.10;95.90
79049;DHT22;68680;50.764;6.120;2023-04-24T07:14:15;7.00;95.10
79049;DHT22;68680;50.764;6.120;2023-04-24T07:16:41;7.00;95.70
79049;DHT22;68680;50.764;6.120;2023-04-24T07:19:07;7.00;95.80
79049;DHT22;68680;50.764;6.120;2023-04-24T07:21:34;7.00;95.10
79049;DHT22;68680;50.764;6.120;2023-04-24T07:23:59;7.00;95.50
79049;DHT22;68680;50.764;6.120;2023-04-24T07:26:25;7.00;95.20
79049;DHT22;68680;50.764;6.120;2023-04-24T07:28:51;7.00;95.50
79049;DHT22;68680;50.764;6.120;2023-04-24T07:31:17;7.00;95.60
79049;DHT22;68680;50.764;6.120;2023-04-24T07:33:43;7.00;95.90
79049;DHT22;68680;50.764;6.120;2023-04-24T07:36:08;7.00;95.80
79049;DHT22;68680;50.764;6.120;2023-04-24T07:38:35;7.00;95.30
79049;DHT22;68680;50.764;6.120;2023-04-24T07:41:01;6.90;94.70
79049;DHT22;68680;50.764;6.120;2023-04-24T07:43:27;6.90;95.10
79049;DHT22;68680;50.764;6.120;2023-04-24T07:45:52;6.80;95.10
79049;DHT22;68680;50.764;6.120;2023-04-24T07:48:18;6.80;95.20
79049;DHT22;68680;50.764;6.120;2023-04-24T07:50:45;6.80;95.50
79049;DHT22;68680;50.764;6.120;2023-04-24T07:53:10;6.80;95.50
79049;DHT22;68680;50.764;6.120;2023-04-24T07:55:37;6.80;96.10
79049;DHT22;68680;50.764;6.120;2023-04-24T07:58:03;6.80;95.70
79049;DHT22;68680;50.764;6.120;2023-04-24T08:00:29;6.90;95.40
79049;DHT22;68680;50.764;6.120;2023-04-24T08:02:55;6.90;95.80
79049;DHT22;68680;50.764;6.120;2023-04-24T08:05:20;6.90;96.00
79049;DHT22;68680;50.764;6.120;2023-04-24T08:07:46;6.90;96.00
79049;DHT22;68680;50.764;6.120;2023-04-24T08:10:12;6.90;96.00
79049;DHT22;68680;50.764;6.120;2023-04-24T08:12:39;7.00;96.20
79049;DHT22;68680;50.764;6.120;2023-04-24T08:15:05;7.00;95.70
79049;DHT22;68680;50.764;6.120;2023-04-24T08:17:31;7.10;96.00
79049;DHT22;68680;50.764;6.120;2023-04-24T08:19:57;7.10;96.10
79049;DHT22;68680;50.764;6.120;2023-04-24T08:22:23;7.10;96.20
79049;DHT22;68680;50.764;6.120;2023-04-24T08:24:48;7.20;95.80
79049;DHT22;68680;50.764;6.120;2023-04-24T08:27:14;7.20;96.00
79049;DHT22;68680;50.764;6.120;2023-04-24T08:29:41;7.20;95.80
79049;DHT22;68680;50.764;6.120;2023-04-24T08:32:07;7.30;95.60
79049;DHT22;68680;50.764;6.120;2023-04-24T08:34:32;7.30;95.50
79049;DHT22;68680;50.764;6.120;2023-04-24T08:36:58;7.40;95.80
79049;DHT22;68680;50.764;6.120;2023-04-24T08:39:23;7.40;95.90
79049;DHT22;68680;50.764;6.120;2023-04-24T08:41:49;7.40;95.10
79049;DHT22;68680;50.764;6.120;2023-04-24T08:44:15;7.40;95.10
79049;DHT22;68680;50.764;6.120;2023-04-24T08:46:43;7.30;95.70
79049;DHT22;68680;50.764;6.120;2023-04-24T08:49:09;7.30;95.90
79049;DHT22;68680;50.764;6.120;2023-04-24T08:51:36;7.20;95.90
79049;DHT22;68680;50.764;6.120;2023-04-24T08:54:02;7.20;96.30
79049;DHT22;68680;50.764;6.120;2023-04-24T08:56:28;7.20;96.40
79049;DHT22;68680;50.764;6.120;2023-04-24T08:58:53;7.30;96.50
79049;DHT22;68680;50.764;6.120;2023-04-24T09:01:19;7.30;96.50
79049;DHT22;68680;50.764;6.120;2023-04-24T09:03:47;7.40;96.20
79049;DHT22;68680;50.764;6.120;2023-04-24T09:06:14;7.30;95.70
79049;DHT22;68680;50.764;6.120;2023-04-24T09:08:41;7.30;96.20
79049;DHT22;68680;50.764;6.120;2023-04-24T09:11:10;7.30;96.40
79049;DHT22;68680;50.764;6.120;2023-04-24T09:13:37;7.40;96.10
79049;DHT22;68680;50.764;6.120;2023-04-24T09:16:03;7.50;96.00
79049;DHT22;68680;50.764;6.120;2023-04-24T09:18:28;7.50;96.00
79049;DHT22;68680;50.764;6.120;2023-04-24T09:20:59;7.50;95.70
79049;DHT22;68680;50.764;6.120;2023-04-24T09:23:26;7.50;95.80
79049;DHT22;68680;50.764;6.120;2023-04-24T09:25:53;7.60;96.10
79049;DHT22;68680;50.764;6.120;2023-04-24T09:28:20;7.60;95.80
79049;DHT22;68680;50.764;6.120;2023-04-24T09:31:01;7.70;95.30
79049;DHT22;68680;50.764;6.120;2023-04-24T09:33:31;7.80;95.70
79049;DHT22;68680;50.764;6.120;2023-04-24T09:35:56;7.80;95.10
79049;DHT22;68680;50.764;6.120;2023-04-24T09:38:31;7.90;94.90
79049;DHT22;68680;50.764;6.120;2023-04-24T09:40:58;8.10;95.40
79049;DHT22;68680;50.764;6.120;2023-04-24T09:43:25;8.10;94.70
79049;DHT22;68680;50.764;6.120;2023-04-24T09:45:52;8.20;95.00
79049;DHT22;68680;50.764;6.120;2023-04-24T09:48:29;8.20;94.60
79049;DHT22;68680;50.764;6.120;2023-04-24T09:50:55;8.20;93.90
79049;DHT22;68680;50.764;6.120;2023-04-24T09:53:23;8.30;93.80
79049;DHT22;68680;50.764;6.120;2023-04-24T09:55:51;8.30;94.60
79049;DHT22;68680;50.764;6.120;2023-04-24T09:58:16;8.30;94.20
79049;DHT22;68680;50.764;6.120;2023-04-24T10:00:42;8.30;93.10
79049;DHT22;68680;50.764;6.120;2023-04-24T10:03:08;8.50;94.50
79049;DHT22;68680;50.764;6.120;2023-04-24T10:05:34;8.60;93.30
79049;DHT22;68680;50.764;6.120;2023-04-24T10:08:01;8.60;91.80
79049;DHT22;68680;50.764;6.120;2023-04-24T10:10:28;8.70;93.20
79049;DHT22;68680;50.764;6.120;2023-04-24T10:12:55;9.00;92.80
79049;DHT22;68680;50.764;6.120;2023-04-24T10:15:21;9.10;92.50
79049;DHT22;68680;50.764;6.120;2023-04-24T10:17:48;9.20;91.70
79049;DHT22;68680;50.764;6.120;2023-04-24T10:20:14;9.20;90.70
79049;DHT22;68680;50.764;6.120;2023-04-24T10:22:40;9.40;93.00
79049;DHT22;68680;50.764;6.120;2023-04-24T10:25:06;9.50;89.60
79049;DHT22;68680;50.764;6.120;2023-04-24T10:27:33;9.40;91.10
79049;DHT22;68680;50.764;6.120;2023-04-24T10:30:01;9.40;89.10
79049;DHT22;68680;50.764;6.120;2023-04-24T10:32:27;9.40;89.80
79049;DHT22;68680;50.764;6.120;2023-04-24T10:34:52;9.50;90.20
79049;DHT22;68680;50.764;6.120;2023-04-24T10:37:19;9.60;89.70
79049;DHT22;68680;50.764;6.120;2023-04-24T10:39:47;9.60;89.90
79049;DHT22;68680;50.764;6.120;2023-04-24T10:42:13;9.60;88.60
79049;DHT22;68680;50.764;6.120;2023-04-24T10:44:39;9.80;91.40
79049;DHT22;68680;50.764;6.120;2023-04-24T10:47:07;9.90;86.30
79049;DHT22;68680;50.764;6.120;2023-04-24T10:49:38;9.90;88.30
79049;DHT22;68680;50.764;6.120;2023-04-24T10:52:04;9.90;89.80
79049;DHT22;68680;50.764;6.120;2023-04-24T10:54:30;10.00;87.10
79049;DHT22;68680;50.764;6.120;2023-04-24T11:00:13;10.00;86.90
79049;DHT22;68680;50.764;6.120;2023-04-24T11:02:41;9.80;88.10
79049;DHT22;68680;50.764;6.120;2023-04-24T11:05:07;9.60;89.80
79049;DHT22;68680;50.764;6.120;2023-04-24T11:10:32;9.30;90.70
79049;DHT22;68680;50.764;6.120;2023-04-24T11:12:58;9.10;90.40
79049;DHT22;68680;50.764;6.120;2023-04-24T11:15:24;8.90;91.00
79049;DHT22;68680;50.764;6.120;2023-04-24T11:17:51;8.90;92.20
79049;DHT22;68680;50.764;6.120;2023-04-24T11:20:22;9.10;92.00
79049;DHT22;68680;50.764;6.120;2023-04-24T11:22:48;9.30;91.50
79049;DHT22;68680;50.764;6.120;2023-04-24T11:25:18;9.60;90.90
79049;DHT22;68680;50.764;6.120;2023-04-24T11:27:44;9.90;89.00
79049;DHT22;68680;50.764;6.120;2023-04-24T11:30:10;9.90;87.20
79049;DHT22;68680;50.764;6.120;2023-04-24T11:32:36;9.70;86.50
79049;DHT22;68680;50.764;6.120;2023-04-24T11:35:05;9.70;88.20
79049;DHT22;68680;50.764;6.120;2023-04-24T11:37:33;9.70;86.20
79049;DHT22;68680;50.764;6.120;2023-04-24T11:40:00;9.80;88.60
79049;DHT22;68680;50.764;6.120;2023-04-24T11:42:26;9.90;86.10
79049;DHT22;68680;50.764;6.120;2023-04-24T11:44:53;10.00;85.10
79049;DHT22;68680;50.764;6.120;2023-04-24T11:47:19;10.20;84.00
79049;DHT22;68680;50.764;6.120;2023-04-24T11:49:45;10.30;83.40
79049;DHT22;68680;50.764;6.120;2023-04-24T11:52:12;10.20;81.10
79049;DHT22;68680;50.764;6.120;2023-04-24T11:54:47;10.20;81.80
79049;DHT22;68680;50.764;6.120;2023-04-24T11:57:13;10.10;81.50
79049;DHT22;68680;50.764;6.120;2023-04-24T11:59:39;10.00;79.90
79049;DHT22;68680;50.764;6.120;2023-04-24T12:02:05;9.80;80.40
79049;DHT22;68680;50.764;6.120;2023-04-24T12:04:38;9.80;79.20
79049;DHT22;68680;50.764;6.120;2023-04-24T12:07:04;9.80;80.70
79049;DHT22;68680;50.764;6.120;2023-04-24T12:09:41;9.80;78.80
79049;DHT22;68680;50.764;6.120;2023-04-24T12:12:07;9.90;81.00
79049;DHT22;68680;50.764;6.120;2023-04-24T12:14:33;10.30;77.50
79049;DHT22;68680;50.764;6.120;2023-04-24T12:17:06;10.50;78.70
79049;DHT22;68680;50.764;6.120;2023-04-24T12:19:32;10.50;76.50
79049;DHT22;68680;50.764;6.120;2023-04-24T12:21:58;10.30;77.50
79049;DHT22;68680;50.764;6.120;2023-04-24T12:24:25;10.20;79.20
79049;DHT22;68680;50.764;6.120;2023-04-24T12:26:52;10.10;79.40
79049;DHT22;68680;50.764;6.120;2023-04-24T12:29:19;10.10;78.70
79049;DHT22;68680;50.764;6.120;2023-04-24T12:31:45;10.10;78.40
79049;DHT22;68680;50.764;6.120;2023-04-24T12:34:17;10.30;78.10
79049;DHT22;68680;50.764;6.120;2023-04-24T12:36:43;11.00;77.30
79049;DHT22;68680;50.764;6.120;2023-04-24T12:39:14;11.90;72.10
79049;DHT22;68680;50.764;6.120;2023-04-24T12:41:48;12.40;72.00
79049;DHT22;68680;50.764;6.120;2023-04-24T12:44:19;12.80;68.20
79049;DHT22;68680;50.764;6.120;2023-04-24T12:46:45;12.50;66.90
79049;DHT22;68680;50.764;6.120;2023-04-24T12:49:10;12.00;68.50
79049;DHT22;68680;50.764;6.120;2023-04-24T12:51:36;11.50;68.60
79049;DHT22;68680;50.764;6.120;2023-04-24T12:54:02;11.30;71.60
79049;DHT22;68680;50.764;6.120;2023-04-24T12:56:28;11.00;71.80
79049;DHT22;68680;50.764;6.120;2023-04-24T12:58:55;11.00;72.10
79049;DHT22;68680;50.764;6.120;2023-04-24T13:01:20;11.00;71.20
79049;DHT22;68680;50.764;6.120;2023-04-24T13:03:46;10.80;71.20
79049;DHT22;68680;50.764;6.120;2023-04-24T13:06:12;10.80;71.00
79049;DHT22;68680;50.764;6.120;2023-04-24T13:08:37;10.80;72.90
79049;DHT22;68680;50.764;6.120;2023-04-24T13:11:03;10.90;71.60
79049;DHT22;68680;50.764;6.120;2023-04-24T13:13:29;11.00;69.10
79049;DHT22;68680;50.764;6.120;2023-04-24T13:15:56;11.20;67.80
79049;DHT22;68680;50.764;6.120;2023-04-24T13:18:21;11.40;69.00
79049;DHT22;68680;50.764;6.120;2023-04-24T13:20:47;11.40;67.10
79049;DHT22;68680;50.764;6.120;2023-04-24T13:23:13;11.30;68.50
79049;DHT22;68680;50.764;6.120;2023-04-24T13:25:38;11.50;68.80
79049;DHT22;68680;50.764;6.120;2023-04-24T13:28:04;11.90;68.60
79049;DHT22;68680;50.764;6.120;2023-04-24T13:30:29;12.70;66.70
79049;DHT22;68680;50.764;6.120;2023-04-24T13:32:57;13.10;62.60
79049;DHT22;68680;50.764;6.120;2023-04-24T13:35:23;13.50;62.70
79049;DHT22;68680;50.764;6.120;2023-04-24T13:37:49;14.20;59.90
79049;DHT22;68680;50.764;6.120;2023-04-24T13:40:14;13.50;61.10
79049;DHT22;68680;50.764;6.120;2023-04-24T13:42:40;12.90;61.10
79049;DHT22;68680;50.764;6.120;2023-04-24T13:45:06;12.20;64.80
79049;DHT22;68680;50.764;6.120;2023-04-24T13:47:32;12.20;65.90
79049;DHT22;68680;50.764;6.120;2023-04-24T13:49:59;12.20;65.80
79049;DHT22;68680;50.764;6.120;2023-04-24T13:52:25;12.20;65.80
79049;DHT22;68680;50.764;6.120;2023-04-24T13:54:50;12.30;65.20
79049;DHT22;68680;50.764;6.120;2023-04-24T13:57:16;12.50;64.70
79049;DHT22;68680;50.764;6.120;2023-04-24T13:59:42;12.50;65.80
79049;DHT22;68680;50.764;6.120;2023-04-24T14:02:07;12.90;60.70
79049;DHT22;68680;50.764;6.120;2023-04-24T14:04:33;13.20;60.30
79049;DHT22;68680;50.764;6.120;2023-04-24T14:07:00;14.00;60.50
79049;DHT22;68680;50.764;6.120;2023-04-24T14:09:26;14.90;56.60
79049;DHT22;68680;50.764;6.120;2023-04-24T14:11:51;15.50;54.70
79049;DHT22;68680;50.764;6.120;2023-04-24T14:14:17;14.70;54.20
79049;DHT22;68680;50.764;6.120;2023-04-24T14:16:42;13.70;56.10
79049;DHT22;68680;50.764;6.120;2023-04-24T14:19:08;13.20;58.50
79049;DHT22;68680;50.764;6.120;2023-04-24T14:21:34;13.40;59.30
79049;DHT22;68680;50.764;6.120;2023-04-24T14:24:01;14.40;60.00
79049;DHT22;68680;50.764;6.120;2023-04-24T14:26:26;14.90;56.40
79049;DHT22;68680;50.764;6.120;2023-04-24T14:28:52;15.10;54.40
79049;DHT22;68680;50.764;6.120;2023-04-24T14:31:18;14.50;55.70
79049;DHT22;68680;50.764;6.120;2023-04-24T14:33:43;13.90;57.90
79049;DHT22;68680;50.764;6.120;2023-04-24T14:36:09;13.30;57.60
79049;DHT22;68680;50.764;6.120;2023-04-24T14:38:35;13.00;60.50
79049;DHT22;68680;50.764;6.120;2023-04-24T14:41:02;12.90;60.00
79049;DHT22;68680;50.764;6.120;2023-04-24T14:43:28;12.90;60.70
79049;DHT22;68680;50.764;6.120;2023-04-24T14:45:53;12.80;60.70
79049;DHT22;68680;50.764;6.120;2023-04-24T14:48:20;12.70;60.50
79049;DHT22;68680;50.764;6.120;2023-04-24T14:50:45;12.60;58.20
79049;DHT22;68680;50.764;6.120;2023-04-24T14:53:11;12.30;59.60
79049;DHT22;68680;50.764;6.120;2023-04-24T14:55:37;12.40;59.20
79049;DHT22;68680;50.764;6.120;2023-04-24T14:58:04;12.20;59.20
79049;DHT22;68680;50.764;6.120;2023-04-24T15:00:30;12.10;60.60
79049;DHT22;68680;50.764;6.120;2023-04-24T15:02:56;12.10;63.00
79049;DHT22;68680;50.764;6.120;2023-04-24T15:05:22;12.10;61.80
79049;DHT22;68680;50.764;6.120;2023-04-24T15:07:47;12.00;61.60
79049;DHT22;68680;50.764;6.120;2023-04-24T15:10:13;12.00;62.50
79049;DHT22;68680;50.764;6.120;2023-04-24T15:12:39;12.00;61.90
79049;DHT22;68680;50.764;6.120;2023-04-24T15:15:07;11.70;63.60
79049;DHT22;68680;50.764;6.120;2023-04-24T15:17:33;11.60;63.70
79049;DHT22;68680;50.764;6.120;2023-04-24T15:19:59;11.50;65.30
79049;DHT22;68680;50.764;6.120;2023-04-24T15:22:25;11.40;64.40
79049;DHT22;68680;50.764;6.120;2023-04-24T15:24:50;11.30;65.90
79049;DHT22;68680;50.764;6.120;2023-04-24T15:27:16;11.30;66.10
79049;DHT22;68680;50.764;6.120;2023-04-24T15:29:42;11.30;65.80
79049;DHT22;68680;50.764;6.120;2023-04-24T15:32:09;11.40;67.00
79049;DHT22;68680;50.764;6.120;2023-04-24T15:34:34;11.40;64.20
79049;DHT22;68680;50.764;6.120;2023-04-24T15:45:42;22.70;68.00
